Ana Sayfa
METAR-TAF:

METAR-TAF

Havaalanları :

Cezayir, Cezayir

Enlem: 36-43N, Boylam: 003-15E, yükseklik: 25 m

Güncel hava durumu gözlemi

Rapor saat 22:00 UTC de 15 dakika önce yapıldı.
Rüzgar güneybatıdan 2 kt
Sıcaklık 10°C
Nem 87%
Basınç 1027 hPa
Görüş mesafesi 10 km veya daha fazla
1500 m altında bulut yok ve kümülonimbus yok

METAR: DAAG 212200Z 23002KT CAVOK 10/08 Q1027

Saat: 23:15 (22:15 UTC)

Tahmin

Rapor saat 17:00 UTC de 5 saat ve 15 dakika önce yapıldı.
Ayın 21'si saat 18 UTC'den ayın 22'si saat 18 UTC'ye kadar geçerli Tahmin
Rüzgar batıdan 10 kt
Görüş mesafesi 10 km veya daha fazla
2600 ft yükseklikte az bulutlu
Dönüşüyor
ayın 21'si saat 20 UTC'den ayın 21'si saat 24 UTC'ye kadar
Rüzgar değişken yönden 2 kt
Geçici
ayın 22'si saat 11 UTC'den ayın 22'si saat 15 UTC'ye kadar
Rüzgar batı/kuzeybatıdan 10 kt

TAF: DAAG 211700Z 2118/2218 26010KT 9999 FEW026 BECMG 2120/2124 VRB02KT TEMPO 2211/2215 30010KT

4.000'den fazla havaalanı için hava durumu gözlemleri ve tahminleri (METAR ve TAF raporları).

Kullanılabilir istasyonlar harita üzerinde sarı ve kırmızı noktalarla gösterilir.

İstasyonun adını görmek için fareyi noktanın üzerinde gezdirin.

Sonrasında hava gözlem ve tahminlerini görmek için tıklayın.

Haritayı değiştirmek için: yaklaştırmak için siyah artı işaretli yeşil düğmeye ve uzaklaştırmak için de eksi işaretli düğmeye hızla tıklayın; bitişik haritalar için yeşil okları kullanın.


METAR-TAF: